Time;durP1;ratioP1;P1;durP2;ratioP2;P2;SDS_P1;SDS_P2;PMS_P1;PMS_P2;Temp;Humidity;BMP_temperature;BMP_pressure;BME280_temperature;BME280_humidity;BME280_pressure;Samples;Min_cycle;Max_cycle;Signal;HPM_P1;HPM_P2
2021/12/09 00:00:11;;;;;;;56.88;36.28;;;;;;;;;;4976505;28;20403;-75
2021/12/09 00:02:39;;;;;;;54.47;33.85;;;;;;;;;;4959209;28;20101;-76
2021/12/09 00:05:05;;;;;;;57.00;34.30;;;;;;;;;;4976235;28;20037;-75
2021/12/09 00:07:31;;;;;;;51.95;31.40;;;;;;;;;;4975688;28;20034;-76
2021/12/09 00:09:57;;;;;;;63.30;38.38;;;;;;;;;;4977020;28;20065;-76
2021/12/09 00:12:27;;;;;;;55.03;29.65;;;;;;;;;;4975129;28;20027;-75
2021/12/09 00:14:55;;;;;;;61.28;36.78;;;;;;;;;;4975376;28;20043;-76
2021/12/09 00:17:23;;;;;;;62.90;36.22;;;;;;;;;;4967037;28;20039;-75
2021/12/09 00:19:49;;;;;;;57.30;33.80;;;;;;;;;;4975204;28;20054;-75
2021/12/09 00:22:15;;;;;;;52.03;32.60;;;;;;;;;;4979735;28;20013;-75
2021/12/09 00:24:41;;;;;;;57.08;33.80;;;;;;;;;;4977799;28;20039;-75
2021/12/09 00:27:07;;;;;;;62.72;35.20;;;;;;;;;;4979847;28;20023;-75
2021/12/09 00:29:33;;;;;;;65.97;38.95;;;;;;;;;;4977877;28;20037;-75
2021/12/09 00:31:59;;;;;;;59.78;34.22;;;;;;;;;;4972432;28;20030;-75
2021/12/09 00:34:32;;;;;;;60.75;36.90;;;;;;;;;;4965422;28;20031;-75
2021/12/09 00:37:16;;;;;;;61.95;34.10;;;;;;;;;;4977152;28;20102;-75
2021/12/09 00:39:44;;;;;;;65.18;39.35;;;;;;;;;;4976199;28;20122;-74
2021/12/09 00:42:10;;;;;;;62.95;38.58;;;;;;;;;;4977042;28;20534;-75
2021/12/09 00:44:36;;;;;;;63.70;40.28;;;;;;;;;;4979849;28;20035;-75
2021/12/09 00:47:03;;;;;;;66.38;39.75;;;;;;;;;;4977111;28;20031;-75
2021/12/09 00:49:30;;;;;;;54.53;33.53;;;;;;;;;;4974809;28;20061;-75
2021/12/09 00:51:58;;;;;;;57.80;35.17;;;;;;;;;;4974451;28;20034;-75
2021/12/09 00:54:25;;;;;;;57.78;35.53;;;;;;;;;;4976099;28;20026;-76
2021/12/09 00:56:51;;;;;;;58.70;35.95;;;;;;;;;;4979837;28;20046;-75
2021/12/09 00:59:18;;;;;;;56.45;35.20;;;;;;;;;;4961968;28;20685;-75
2021/12/09 01:01:44;;;;;;;53.28;34.63;;;;;;;;;;4975898;28;20386;-75
2021/12/09 01:04:10;;;;;;;48.80;29.48;;;;;;;;;;4965122;28;20539;-76
2021/12/09 01:06:36;;;;;;;57.60;34.58;;;;;;;;;;4981181;28;20023;-76
2021/12/09 01:09:04;;;;;;;52.20;29.23;;;;;;;;;;4980870;28;20069;-75
2021/12/09 01:11:32;;;;;;;47.00;27.92;;;;;;;;;;4984659;28;20037;-75
2021/12/09 01:13:58;;;;;;;55.08;33.92;;;;;;;;;;4980588;28;20023;-75
2021/12/09 01:16:25;;;;;;;56.15;38.25;;;;;;;;;;4987031;28;20109;-75
2021/12/09 01:18:51;;;;;;;51.50;32.05;;;;;;;;;;4980359;28;20537;-75
2021/12/09 01:21:21;;;;;;;56.70;33.72;;;;;;;;;;4979220;28;20027;-75
2021/12/09 01:23:47;;;;;;;58.60;35.22;;;;;;;;;;4979054;28;20030;-76
2021/12/09 01:26:15;;;;;;;55.03;36.42;;;;;;;;;;4967291;28;20481;-76
2021/12/09 01:28:56;;;;;;;52.63;33.05;;;;;;;;;;4980038;28;20030;-76
2021/12/09 01:31:31;;;;;;;47.25;29.40;;;;;;;;;;4978535;28;20035;-75
2021/12/09 01:34:01;;;;;;;45.85;29.65;;;;;;;;;;4977794;28;20103;-76
2021/12/09 01:36:28;;;;;;;52.03;32.97;;;;;;;;;;4979051;28;20027;-75
2021/12/09 01:38:54;;;;;;;52.53;31.90;;;;;;;;;;4979390;28;20030;-75
2021/12/09 01:41:20;;;;;;;46.97;29.75;;;;;;;;;;4978612;28;20034;-76
2021/12/09 01:43:48;;;;;;;51.80;31.30;;;;;;;;;;4977761;28;20397;-75
2021/12/09 01:46:15;;;;;;;40.83;25.85;;;;;;;;;;4979758;28;20023;-75
2021/12/09 01:48:42;;;;;;;47.95;27.85;;;;;;;;;;4979144;28;20472;-75
2021/12/09 01:51:08;;;;;;;52.10;31.05;;;;;;;;;;4969028;28;20027;-76
2021/12/09 01:53:35;;;;;;;52.90;31.90;;;;;;;;;;4970914;28;20034;-75
2021/12/09 01:56:05;;;;;;;48.97;29.33;;;;;;;;;;4977952;28;20103;-75
2021/12/09 01:58:37;;;;;;;48.05;29.95;;;;;;;;;;4980382;28;20065;-75
2021/12/09 02:01:05;;;;;;;50.35;31.65;;;;;;;;;;4977964;28;20102;-75
2021/12/09 02:03:31;;;;;;;50.28;29.92;;;;;;;;;;4977775;28;20034;-75
2021/12/09 02:05:57;;;;;;;53.70;30.85;;;;;;;;;;4976292;28;20035;-75
2021/12/09 02:08:24;;;;;;;48.28;31.90;;;;;;;;;;4970326;28;20031;-75
2021/12/09 02:10:50;;;;;;;49.75;31.70;;;;;;;;;;4987550;28;20086;-75
2021/12/09 02:13:18;;;;;;;49.17;31.45;;;;;;;;;;4978923;28;20033;-75
2021/12/09 02:15:46;;;;;;;36.00;22.75;;;;;;;;;;4983887;28;20031;-75
2021/12/09 02:18:13;;;;;;;47.05;30.70;;;;;;;;;;4985941;28;20037;-75
2021/12/09 02:20:41;;;;;;;47.47;29.20;;;;;;;;;;4987302;28;20031;-75
2021/12/09 02:23:10;;;;;;;47.53;31.05;;;;;;;;;;4979583;28;20026;-75
2021/12/09 02:25:39;;;;;;;40.45;24.67;;;;;;;;;;4978998;28;20027;-75
2021/12/09 02:28:05;;;;;;;49.75;29.23;;;;;;;;;;4959145;28;20040;-75
2021/12/09 02:30:31;;;;;;;46.45;30.98;;;;;;;;;;4957251;29;20027;-75
2021/12/09 02:32:57;;;;;;;44.28;28.02;;;;;;;;;;4976474;28;20480;-75
2021/12/09 02:35:23;;;;;;;45.05;29.65;;;;;;;;;;4975835;28;20113;-75
2021/12/09 02:37:50;;;;;;;61.65;41.03;;;;;;;;;;4968680;28;20061;-75
2021/12/09 02:40:17;;;;;;;44.10;28.95;;;;;;;;;;4980025;28;20038;-77
2021/12/09 02:42:43;;;;;;;27.55;17.42;;;;;;;;;;4986162;28;20478;-75
2021/12/09 02:45:11;;;;;;;24.13;16.25;;;;;;;;;;4969806;28;20033;-75
2021/12/09 02:47:38;;;;;;;27.50;16.70;;;;;;;;;;4986639;28;20122;-75
2021/12/09 02:50:05;;;;;;;26.60;17.38;;;;;;;;;;4982746;28;20097;-75
2021/12/09 02:52:32;;;;;;;29.00;17.85;;;;;;;;;;4980285;28;20011;-76
2021/12/09 02:55:00;;;;;;;31.08;20.17;;;;;;;;;;4978523;28;20026;-75
2021/12/09 02:57:27;;;;;;;33.47;21.80;;;;;;;;;;4976910;28;20133;-75
2021/12/09 02:59:53;;;;;;;32.45;21.33;;;;;;;;;;4976607;28;20074;-75
2021/12/09 03:02:20;;;;;;;35.58;23.40;;;;;;;;;;4957309;28;20051;-75
2021/12/09 03:04:54;;;;;;;40.33;26.63;;;;;;;;;;4979939;28;20053;-75
2021/12/09 03:07:24;;;;;;;37.00;24.15;;;;;;;;;;4973824;28;20019;-75
2021/12/09 03:09:53;;;;;;;34.60;23.10;;;;;;;;;;4976667;28;20069;-75
2021/12/09 03:12:24;;;;;;;38.45;25.80;;;;;;;;;;4975391;28;20094;-76
2021/12/09 03:14:51;;;;;;;36.60;24.48;;;;;;;;;;4976812;28;20814;-75
2021/12/09 03:17:22;;;;;;;43.35;26.42;;;;;;;;;;4975756;28;20026;-75
2021/12/09 03:19:49;;;;;;;39.22;24.77;;;;;;;;;;4975296;28;20149;-75
2021/12/09 03:22:17;;;;;;;38.78;23.95;;;;;;;;;;4975481;28;20086;-75
2021/12/09 03:24:44;;;;;;;32.35;21.40;;;;;;;;;;4974903;28;20463;-75
2021/12/09 03:27:12;;;;;;;41.47;25.77;;;;;;;;;;4974700;28;20776;-75
2021/12/09 03:29:39;;;;;;;34.53;21.33;;;;;;;;;;4975469;28;20031;-75
2021/12/09 03:32:09;;;;;;;39.70;25.73;;;;;;;;;;4975781;28;20057;-75
2021/12/09 03:34:36;;;;;;;36.13;24.33;;;;;;;;;;4976198;28;20369;-74
2021/12/09 03:37:05;;;;;;;34.88;23.60;;;;;;;;;;4975840;28;20019;-75
2021/12/09 03:39:33;;;;;;;34.15;22.15;;;;;;;;;;4976961;28;20041;-75
2021/12/09 03:42:00;;;;;;;39.60;24.45;;;;;;;;;;4974810;28;20039;-74
2021/12/09 03:44:28;;;;;;;35.50;23.63;;;;;;;;;;4974979;28;20027;-76
2021/12/09 03:46:54;;;;;;;36.05;21.65;;;;;;;;;;4976389;28;20023;-75
2021/12/09 03:49:23;;;;;;;35.80;22.45;;;;;;;;;;4975442;28;20027;-75
2021/12/09 03:51:49;;;;;;;37.45;23.05;;;;;;;;;;4976162;28;20035;-75
2021/12/09 03:54:16;;;;;;;31.80;20.35;;;;;;;;;;4978734;28;20484;-75
2021/12/09 03:56:42;;;;;;;27.35;19.15;;;;;;;;;;4977268;28;20412;-76
2021/12/09 03:59:09;;;;;;;33.33;21.20;;;;;;;;;;4977535;28;20047;-76
2021/12/09 04:01:36;;;;;;;27.35;18.35;;;;;;;;;;4974968;28;20380;-75
2021/12/09 04:04:02;;;;;;;23.50;16.92;;;;;;;;;;4975421;28;20030;-75
2021/12/09 04:06:31;;;;;;;28.08;18.08;;;;;;;;;;4944997;29;20531;-76
2021/12/09 04:08:58;;;;;;;26.33;16.35;;;;;;;;;;4964757;28;20023;-75
2021/12/09 04:11:24;;;;;;;24.60;16.50;;;;;;;;;;4978131;28;20041;-75
2021/12/09 04:13:50;;;;;;;24.55;16.75;;;;;;;;;;4977669;28;20069;-75
2021/12/09 04:16:25;;;;;;;23.25;16.45;;;;;;;;;;4976451;28;20038;-75
2021/12/09 04:18:51;;;;;;;19.48;12.50;;;;;;;;;;4977241;28;20031;-76
2021/12/09 04:21:17;;;;;;;23.55;15.48;;;;;;;;;;4956068;28;20030;-75
2021/12/09 04:23:43;;;;;;;22.13;15.10;;;;;;;;;;4971292;28;20027;-75
2021/12/09 04:26:10;;;;;;;24.52;15.98;;;;;;;;;;4975221;28;20065;-75
2021/12/09 04:28:37;;;;;;;19.88;13.85;;;;;;;;;;4975911;28;20085;-76
2021/12/09 04:31:04;;;;;;;23.05;14.90;;;;;;;;;;4973056;28;20019;-75
2021/12/09 04:33:31;;;;;;;24.50;15.90;;;;;;;;;;4947507;28;20023;-76
2021/12/09 04:35:59;;;;;;;25.95;16.30;;;;;;;;;;4974291;28;20027;-75
2021/12/09 04:38:25;;;;;;;18.80;12.80;;;;;;;;;;4964553;28;20105;-75
2021/12/09 04:40:52;;;;;;;20.90;13.52;;;;;;;;;;4964229;28;20027;-75
2021/12/09 04:43:18;;;;;;;20.58;13.85;;;;;;;;;;4977812;28;20015;-75
2021/12/09 04:45:44;;;;;;;19.98;13.95;;;;;;;;;;4977463;28;20366;-75
2021/12/09 04:48:11;;;;;;;17.60;12.15;;;;;;;;;;4978560;28;20038;-75
2021/12/09 04:50:43;;;;;;;20.35;13.85;;;;;;;;;;4963326;28;20442;-75
2021/12/09 04:53:11;;;;;;;20.20;12.27;;;;;;;;;;4981599;28;20058;-74
2021/12/09 04:55:37;;;;;;;18.38;13.77;;;;;;;;;;4979906;28;20043;-74
2021/12/09 04:58:07;;;;;;;18.05;12.93;;;;;;;;;;4980328;28;20030;-76
2021/12/09 05:00:37;;;;;;;21.15;13.23;;;;;;;;;;4967069;28;20093;-74
2021/12/09 05:03:11;;;;;;;21.30;14.50;;;;;;;;;;4983897;28;20055;-75
2021/12/09 05:05:44;;;;;;;19.13;13.65;;;;;;;;;;4979961;28;20029;-75
2021/12/09 05:08:11;;;;;;;25.35;16.73;;;;;;;;;;4983211;28;20059;-75
2021/12/09 05:13:38;;;;;;;22.40;15.52;;;;;;;;;;4905241;29;20419;-75
2021/12/09 05:16:05;;;;;;;21.00;14.68;;;;;;;;;;4911510;29;20028;-74
2021/12/09 05:18:33;;;;;;;22.80;15.10;;;;;;;;;;4903964;29;20109;-74
2021/12/09 05:21:01;;;;;;;22.17;14.93;;;;;;;;;;4905980;29;20025;-74
2021/12/09 05:23:27;;;;;;;24.60;16.25;;;;;;;;;;4910470;29;20064;-75
2021/12/09 05:25:53;;;;;;;22.55;15.10;;;;;;;;;;4902783;29;20072;-75
2021/12/09 05:28:27;;;;;;;20.00;13.75;;;;;;;;;;4898848;29;20039;-75
2021/12/09 05:33:38;;;;;;;21.77;15.35;;;;;;;;;;4904423;29;20190;-75
2021/12/09 05:36:04;;;;;;;23.38;15.20;;;;;;;;;;4903334;29;20032;-75
2021/12/09 05:38:30;;;;;;;24.73;16.05;;;;;;;;;;4900685;29;20029;-74
2021/12/09 05:40:56;;;;;;;22.00;16.00;;;;;;;;;;4899171;29;20036;-75
2021/12/09 05:43:23;;;;;;;24.00;15.55;;;;;;;;;;4904865;29;20114;-75
2021/12/09 05:45:49;;;;;;;25.85;16.20;;;;;;;;;;4902500;29;20047;-76
2021/12/09 05:48:15;;;;;;;21.17;14.88;;;;;;;;;;4903197;29;20037;-75
2021/12/09 05:50:42;;;;;;;22.98;15.57;;;;;;;;;;4954953;29;20489;-75
2021/12/09 05:53:08;;;;;;;26.67;15.52;;;;;;;;;;4978598;28;20026;-75
2021/12/09 05:55:34;;;;;;;23.83;15.95;;;;;;;;;;4982089;28;20067;-75
2021/12/09 05:58:01;;;;;;;21.77;14.15;;;;;;;;;;4979260;28;20065;-76
2021/12/09 06:00:27;;;;;;;21.25;14.60;;;;;;;;;;4987631;28;20046;-77
2021/12/09 06:02:53;;;;;;;24.38;16.67;;;;;;;;;;4976602;28;20362;-75
2021/12/09 06:05:20;;;;;;;23.40;15.85;;;;;;;;;;4979119;28;20031;-75
2021/12/09 06:07:47;;;;;;;24.13;15.48;;;;;;;;;;4983985;28;20074;-75
2021/12/09 06:10:13;;;;;;;21.95;16.33;;;;;;;;;;4986020;28;20045;-75
2021/12/09 06:12:40;;;;;;;21.90;14.65;;;;;;;;;;4976538;28;20436;-75
2021/12/09 06:15:06;;;;;;;23.02;15.13;;;;;;;;;;4972295;28;20034;-75
2021/12/09 06:17:32;;;;;;;21.23;14.60;;;;;;;;;;4978267;28;20070;-75
2021/12/09 06:20:03;;;;;;;23.48;15.15;;;;;;;;;;4988587;28;20269;-73
2021/12/09 06:22:35;;;;;;;22.15;15.88;;;;;;;;;;4980994;28;20023;-73
2021/12/09 06:25:01;;;;;;;20.70;14.98;;;;;;;;;;4980796;28;20030;-77
2021/12/09 06:27:28;;;;;;;20.95;14.30;;;;;;;;;;4984378;28;20031;-77
2021/12/09 06:29:54;;;;;;;21.48;14.65;;;;;;;;;;4984132;28;20027;-76
2021/12/09 06:32:20;;;;;;;22.98;15.75;;;;;;;;;;4975246;28;20047;-77
2021/12/09 06:34:47;;;;;;;21.23;13.98;;;;;;;;;;4977678;28;20381;-77
2021/12/09 06:37:13;;;;;;;21.00;15.45;;;;;;;;;;4969565;28;20019;-77
2021/12/09 06:39:39;;;;;;;21.15;15.07;;;;;;;;;;4972114;28;20030;-77
2021/12/09 06:42:06;;;;;;;23.35;16.10;;;;;;;;;;4974065;28;20019;-77
2021/12/09 06:44:32;;;;;;;22.20;14.32;;;;;;;;;;4976758;28;20019;-78
2021/12/09 06:46:58;;;;;;;21.55;14.40;;;;;;;;;;4955240;28;20038;-77
2021/12/09 06:49:24;;;;;;;20.48;13.95;;;;;;;;;;4976764;28;20031;-77
2021/12/09 06:51:51;;;;;;;21.05;14.30;;;;;;;;;;4961931;28;20037;-76
2021/12/09 06:54:17;;;;;;;20.60;13.85;;;;;;;;;;4968755;28;20548;-77
2021/12/09 06:56:43;;;;;;;21.42;15.10;;;;;;;;;;4973793;28;20046;-77
2021/12/09 06:59:09;;;;;;;20.95;13.57;;;;;;;;;;4975967;28;20031;-77
2021/12/09 07:01:37;;;;;;;21.35;13.75;;;;;;;;;;4958384;28;20066;-77
2021/12/09 07:04:04;;;;;;;20.92;14.48;;;;;;;;;;4975323;28;20053;-77
2021/12/09 07:06:30;;;;;;;23.80;14.27;;;;;;;;;;4975501;28;20019;-77
2021/12/09 07:09:00;;;;;;;22.48;13.40;;;;;;;;;;4975394;28;20057;-77
2021/12/09 07:11:29;;;;;;;20.25;13.48;;;;;;;;;;4957242;28;20046;-76
2021/12/09 07:13:55;;;;;;;17.98;12.25;;;;;;;;;;4968566;28;20023;-76
2021/12/09 07:16:22;;;;;;;18.65;11.52;;;;;;;;;;4971053;28;20082;-76
2021/12/09 07:18:48;;;;;;;19.25;12.88;;;;;;;;;;4952338;29;20035;-77
2021/12/09 07:21:14;;;;;;;19.40;12.23;;;;;;;;;;4973282;28;20031;-77
2021/12/09 07:23:40;;;;;;;16.13;11.63;;;;;;;;;;4974871;28;20157;-76
2021/12/09 07:26:07;;;;;;;21.65;14.00;;;;;;;;;;4971206;28;20038;-76
2021/12/09 07:28:33;;;;;;;18.65;11.43;;;;;;;;;;4974735;28;20022;-76
2021/12/09 07:30:59;;;;;;;17.55;12.02;;;;;;;;;;4970283;28;20062;-77
2021/12/09 07:33:25;;;;;;;18.25;12.40;;;;;;;;;;4956195;28;20034;-77
2021/12/09 07:35:54;;;;;;;18.90;11.98;;;;;;;;;;4971784;28;20038;-76
2021/12/09 07:38:20;;;;;;;15.10;10.63;;;;;;;;;;4975841;28;20170;-77
2021/12/09 07:40:46;;;;;;;19.33;11.15;;;;;;;;;;4976409;28;20066;-77
2021/12/09 07:43:12;;;;;;;16.80;10.02;;;;;;;;;;4955925;28;20456;-77
2021/12/09 07:45:38;;;;;;;19.55;11.63;;;;;;;;;;4974650;28;20027;-77
2021/12/09 07:48:04;;;;;;;15.43;10.38;;;;;;;;;;4974784;28;20026;-77
2021/12/09 07:50:31;;;;;;;19.35;11.68;;;;;;;;;;4975528;28;20126;-77
2021/12/09 07:52:58;;;;;;;16.40;11.15;;;;;;;;;;4956031;28;20069;-76
2021/12/09 07:55:24;;;;;;;14.52;10.77;;;;;;;;;;4974157;28;20031;-77
2021/12/09 07:57:51;;;;;;;20.27;12.65;;;;;;;;;;4974552;28;20086;-77
2021/12/09 08:00:21;;;;;;;23.13;12.57;;;;;;;;;;4975392;28;20074;-77
2021/12/09 08:02:49;;;;;;;29.05;13.77;;;;;;;;;;4971426;28;20551;-77
2021/12/09 08:05:17;;;;;;;21.10;12.23;;;;;;;;;;4971145;28;20031;-77
2021/12/09 08:07:43;;;;;;;18.17;11.10;;;;;;;;;;4974998;28;20019;-77
2021/12/09 08:10:10;;;;;;;15.27;9.80;;;;;;;;;;4975279;28;20023;-77
2021/12/09 08:12:36;;;;;;;14.50;9.35;;;;;;;;;;4962436;28;20019;-77
2021/12/09 08:15:03;;;;;;;18.38;10.13;;;;;;;;;;4975574;28;20027;-77
2021/12/09 08:20:33;;;;;;;12.60;8.85;;;;;;;;;;4978010;28;20109;-78
2021/12/09 08:23:19;;;;;;;13.23;8.95;;;;;;;;;;4972345;28;20023;-76
2021/12/09 08:25:47;;;;;;;14.02;8.13;;;;;;;;;;4975084;28;20121;-77
2021/12/09 08:28:13;;;;;;;13.05;7.95;;;;;;;;;;4975553;28;20026;-77
2021/12/09 08:30:39;;;;;;;13.15;8.30;;;;;;;;;;4972246;28;20504;-76
2021/12/09 08:33:07;;;;;;;12.68;8.27;;;;;;;;;;4965344;28;20153;-76
2021/12/09 08:35:34;;;;;;;12.43;7.78;;;;;;;;;;4971781;28;20058;-77
2021/12/09 08:38:00;;;;;;;13.32;7.90;;;;;;;;;;4976731;28;20023;-77
2021/12/09 08:40:27;;;;;;;12.77;6.95;;;;;;;;;;4975796;28;20481;-76
2021/12/09 08:42:54;;;;;;;12.10;7.85;;;;;;;;;;4958175;28;20038;-77
2021/12/09 08:45:21;;;;;;;11.70;8.50;;;;;;;;;;4976477;28;20493;-76
2021/12/09 08:47:48;;;;;;;15.88;8.52;;;;;;;;;;4970168;28;20027;-76
2021/12/09 08:50:16;;;;;;;14.65;8.20;;;;;;;;;;4972627;28;20058;-77
2021/12/09 08:52:42;;;;;;;14.00;8.85;;;;;;;;;;4971652;28;20019;-76
2021/12/09 08:55:09;;;;;;;13.45;8.48;;;;;;;;;;4961825;28;20511;-76
2021/12/09 08:57:37;;;;;;;18.40;10.38;;;;;;;;;;4958682;28;20161;-76
2021/12/09 09:00:05;;;;;;;17.38;10.07;;;;;;;;;;4968876;28;20480;-77
2021/12/09 09:02:31;;;;;;;14.35;8.90;;;;;;;;;;4960459;28;20015;-76
2021/12/09 09:04:59;;;;;;;14.23;8.82;;;;;;;;;;4957888;28;20023;-76
2021/12/09 09:07:25;;;;;;;20.15;11.00;;;;;;;;;;4967263;28;20022;-76
2021/12/09 09:09:53;;;;;;;13.30;9.07;;;;;;;;;;4974642;28;20023;-74
2021/12/09 09:12:19;;;;;;;14.95;10.18;;;;;;;;;;4976313;28;20437;-73
2021/12/09 09:14:48;;;;;;;11.68;7.95;;;;;;;;;;4960908;28;20336;-75
2021/12/09 09:17:14;;;;;;;17.27;10.23;;;;;;;;;;4985435;28;20030;-76
2021/12/09 09:19:40;;;;;;;16.20;10.48;;;;;;;;;;4988779;28;20045;-78
2021/12/09 09:22:07;;;;;;;14.98;8.38;;;;;;;;;;4973665;28;20110;-76
2021/12/09 09:24:33;;;;;;;16.40;11.30;;;;;;;;;;4981125;28;20014;-76
2021/12/09 09:27:08;;;;;;;18.40;10.48;;;;;;;;;;4988014;28;20038;-78
2021/12/09 09:29:54;;;;;;;19.20;11.98;;;;;;;;;;4976489;28;20015;-78
2021/12/09 09:32:21;;;;;;;18.00;12.02;;;;;;;;;;4962407;28;20416;-75
2021/12/09 09:34:47;;;;;;;15.43;9.18;;;;;;;;;;4976821;28;20027;-75
2021/12/09 09:37:13;;;;;;;13.25;7.40;;;;;;;;;;4983701;28;20031;-78
2021/12/09 09:39:44;;;;;;;18.15;10.88;;;;;;;;;;4986114;28;20039;-78
2021/12/09 09:44:54;;;;;;;14.82;9.27;;;;;;;;;;4974229;28;20493;-76
2021/12/09 09:47:23;;;;;;;17.23;11.50;;;;;;;;;;4973051;28;20086;-75
2021/12/09 09:49:50;;;;;;;16.05;9.13;;;;;;;;;;4973189;28;20023;-75
2021/12/09 09:52:16;;;;;;;19.92;11.23;;;;;;;;;;4975451;28;20147;-75
2021/12/09 09:54:43;;;;;;;18.23;10.73;;;;;;;;;;4975327;28;20485;-75
2021/12/09 09:57:10;;;;;;;16.80;10.88;;;;;;;;;;4967156;28;20107;-75
2021/12/09 09:59:40;;;;;;;19.67;9.77;;;;;;;;;;4969283;28;20089;-73
2021/12/09 10:02:09;;;;;;;18.77;10.60;;;;;;;;;;4974503;28;20412;-76
2021/12/09 10:04:48;;;;;;;21.35;12.13;;;;;;;;;;4987228;28;20060;-74
2021/12/09 10:07:15;;;;;;;19.70;11.85;;;;;;;;;;4978647;28;20078;-74
2021/12/09 10:09:44;;;;;;;16.10;10.82;;;;;;;;;;4981119;28;20058;-77
2021/12/09 10:12:12;;;;;;;20.65;11.82;;;;;;;;;;4982171;28;20027;-76
2021/12/09 10:14:38;;;;;;;18.45;11.40;;;;;;;;;;4985230;28;20030;-78
2021/12/09 10:17:09;;;;;;;18.30;12.32;;;;;;;;;;4979126;28;20033;-74
2021/12/09 10:19:37;;;;;;;17.83;11.68;;;;;;;;;;4971951;28;20035;-74
2021/12/09 10:22:16;;;;;;;14.88;10.45;;;;;;;;;;4984668;28;20033;-75
2021/12/09 10:24:42;;;;;;;19.00;11.63;;;;;;;;;;4975084;28;20350;-76
2021/12/09 10:27:10;;;;;;;16.05;10.80;;;;;;;;;;4986475;28;20018;-75
2021/12/09 10:29:44;;;;;;;16.60;11.18;;;;;;;;;;4993533;28;20034;-76
2021/12/09 10:32:14;;;;;;;19.60;11.07;;;;;;;;;;4974169;28;20034;-77
2021/12/09 10:34:47;;;;;;;16.60;11.57;;;;;;;;;;4981790;28;20030;-77
2021/12/09 10:37:20;;;;;;;18.75;11.07;;;;;;;;;;4977283;28;20035;-76
2021/12/09 10:40:04;;;;;;;15.75;10.90;;;;;;;;;;4959304;28;20051;-76
2021/12/09 10:42:37;;;;;;;16.65;10.30;;;;;;;;;;4983870;28;20027;-76
2021/12/09 10:45:20;;;;;;;16.33;10.40;;;;;;;;;;4986322;28;20055;-74
2021/12/09 10:47:57;;;;;;;20.17;11.13;;;;;;;;;;4979963;28;20093;-74
2021/12/09 10:50:44;;;;;;;18.17;10.80;;;;;;;;;;4989729;28;20082;-73
2021/12/09 10:53:33;;;;;;;16.58;11.00;;;;;;;;;;4971586;28;20121;-75
2021/12/09 10:56:06;;;;;;;15.77;10.45;;;;;;;;;;4971983;28;20055;-75
2021/12/09 10:58:40;;;;;;;17.90;11.00;;;;;;;;;;4969182;28;20030;-75
2021/12/09 11:01:10;;;;;;;14.77;9.05;;;;;;;;;;4973457;28;20504;-75
2021/12/09 11:03:43;;;;;;;17.80;10.55;;;;;;;;;;4974350;28;20061;-75
2021/12/09 11:06:16;;;;;;;18.33;11.00;;;;;;;;;;4972756;28;20366;-76
2021/12/09 11:08:44;;;;;;;17.73;11.43;;;;;;;;;;4977736;28;20026;-76
2021/12/09 11:11:20;;;;;;;18.00;11.43;;;;;;;;;;4977347;28;20018;-77
2021/12/09 11:13:46;;;;;;;19.35;12.70;;;;;;;;;;4983128;28;20031;-75
2021/12/09 11:16:22;;;;;;;22.60;13.68;;;;;;;;;;4982251;28;20046;-77
2021/12/09 11:18:48;;;;;;;20.33;12.60;;;;;;;;;;4980749;28;20023;-77
2021/12/09 11:21:40;;;;;;;16.67;10.88;;;;;;;;;;4984314;28;20023;-77
2021/12/09 11:24:10;;;;;;;17.65;11.20;;;;;;;;;;4982370;28;20042;-76
2021/12/09 11:26:58;;;;;;;19.42;12.40;;;;;;;;;;4981268;28;20019;-79
2021/12/09 12:07:58;;;;;;;16.52;10.68;;;;;;;;;;4995548;28;20050;-76
2021/12/09 12:13:36;;;;;;;23.58;14.10;;;;;;;;;;4986263;28;20503;-77
2021/12/09 12:19:33;;;;;;;12.98;8.77;;;;;;;;;;4874298;29;20053;-77
2021/12/09 12:22:12;;;;;;;12.10;8.98;;;;;;;;;;4856544;29;20121;-78
2021/12/09 12:27:28;;;;;;;14.20;9.32;;;;;;;;;;4846873;29;20033;-75
2021/12/09 12:33:21;;;;;;;11.98;8.30;;;;;;;;;;4862034;29;20045;-77
2021/12/09 12:36:43;;;;;;;12.23;8.35;;;;;;;;;;4860645;29;20058;-76
2021/12/09 12:42:27;;;;;;;12.40;7.32;;;;;;;;;;5011329;23;20104;-81
2021/12/09 12:51:48;;;;;;;13.02;8.55;;;;;;;;;;4920735;29;20029;-81
2021/12/09 12:54:33;;;;;;;12.38;7.60;;;;;;;;;;4903965;29;20043;-77
2021/12/09 12:57:01;;;;;;;11.70;7.78;;;;;;;;;;4897450;29;20116;-76
2021/12/09 12:59:38;;;;;;;11.63;8.43;;;;;;;;;;4908637;29;20055;-76
2021/12/09 13:02:14;;;;;;;11.93;7.85;;;;;;;;;;4904155;29;20044;-75
2021/12/09 13:04:55;;;;;;;13.02;7.70;;;;;;;;;;4885578;29;20609;-77
2021/12/09 13:07:52;;;;;;;14.10;7.95;;;;;;;;;;4896893;29;20550;-75
2021/12/09 13:10:25;;;;;;;11.85;7.30;;;;;;;;;;4873224;29;20041;-74
2021/12/09 13:15:33;;;;;;;12.13;7.72;;;;;;;;;;5590834;23;20046;-76
2021/12/09 13:18:04;;;;;;;9.85;7.05;;;;;;;;;;4961424;28;20028;-77
2021/12/09 13:20:32;;;;;;;12.18;6.88;;;;;;;;;;4956836;28;20039;-75
2021/12/09 13:23:22;;;;;;;10.73;6.60;;;;;;;;;;4977115;28;20027;-77
2021/12/09 13:32:18;;;;;;;11.23;6.57;;;;;;;;;;4941965;27;20036;-79
2021/12/09 13:45:54;;;;;;;10.50;7.30;;;;;;;;;;5986816;23;20010;-80
2021/12/09 13:48:44;;;;;;;12.88;8.25;;;;;;;;;;4933403;29;20036;-76
2021/12/09 13:51:29;;;;;;;11.98;8.00;;;;;;;;;;4942226;29;20034;-77
2021/12/09 13:54:19;;;;;;;12.20;8.30;;;;;;;;;;4937678;28;20020;-84
2021/12/09 13:57:09;;;;;;;12.45;8.00;;;;;;;;;;4911943;28;20087;-84
2021/12/09 14:00:02;;;;;;;14.73;7.40;;;;;;;;;;4860665;29;20083;-80
2021/12/09 14:02:30;;;;;;;12.65;6.72;;;;;;;;;;4875815;29;20067;-76
2021/12/09 14:04:59;;;;;;;12.45;7.35;;;;;;;;;;4865201;29;20089;-77
2021/12/09 14:07:42;;;;;;;14.68;8.38;;;;;;;;;;4878087;29;20098;-76
2021/12/09 14:10:15;;;;;;;11.75;7.65;;;;;;;;;;4844238;29;20055;-75
2021/12/09 14:12:55;;;;;;;42.40;27.00;;;;;;;;;;4833206;29;20045;-77
2021/12/09 14:15:33;;;;;;;13.52;9.48;;;;;;;;;;4841306;29;20042;-77
2021/12/09 14:18:07;;;;;;;18.13;12.70;;;;;;;;;;4832871;29;20042;-76
2021/12/09 14:20:33;;;;;;;;;;;;;;;;;;4830432;29;20050;-76
2021/12/09 14:23:02;;;;;;;11.38;8.00;;;;;;;;;;4834978;29;20011;-77
2021/12/09 14:25:33;;;;;;;11.73;8.45;;;;;;;;;;4829224;29;20038;-76
2021/12/09 14:28:05;;;;;;;15.98;7.43;;;;;;;;;;4828684;29;20046;-77
2021/12/09 14:30:31;;;;;;;22.17;14.80;;;;;;;;;;4863600;29;20064;-76
2021/12/09 14:32:58;;;;;;;18.75;11.98;;;;;;;;;;4888917;29;20124;-79
2021/12/09 14:35:31;;;;;;;13.98;8.93;;;;;;;;;;4890817;29;20048;-79
2021/12/09 14:38:02;;;;;;;12.45;8.95;;;;;;;;;;4894429;29;20041;-79
2021/12/09 14:40:36;;;;;;;335.00;253.65;;;;;;;;;;4895464;29;20107;-79
2021/12/09 14:43:17;;;;;;;14.70;10.85;;;;;;;;;;4918712;29;20067;-79
2021/12/09 14:45:54;;;;;;;26.17;18.02;;;;;;;;;;4936060;29;20068;-79
2021/12/09 14:48:36;;;;;;;46.45;33.40;;;;;;;;;;4916507;29;20579;-78
2021/12/09 14:51:12;;;;;;;162.25;107.82;;;;;;;;;;4915215;29;20036;-78
2021/12/09 14:53:42;;;;;;;219.65;157.75;;;;;;;;;;4916440;29;20033;-78
2021/12/09 14:56:19;;;;;;;16.35;10.95;;;;;;;;;;4928330;29;20032;-78
2021/12/09 14:58:46;;;;;;;208.27;144.60;;;;;;;;;;4899716;29;20040;-77
2021/12/09 15:01:16;;;;;;;70.97;43.17;;;;;;;;;;4928200;29;20083;-75
2021/12/09 15:03:53;;;;;;;304.40;195.75;;;;;;;;;;4911567;29;20048;-76
2021/12/09 15:06:25;;;;;;;586.75;396.40;;;;;;;;;;4914937;29;20788;-78
2021/12/09 15:09:14;;;;;;;60.63;36.83;;;;;;;;;;5351360;23;20010;-80
2021/12/09 15:12:00;;;;;;;39.90;25.80;;;;;;;;;;4945555;28;20043;-81
2021/12/09 15:14:31;;;;;;;51.28;30.70;;;;;;;;;;4937212;29;20039;-77
2021/12/09 15:17:03;;;;;;;219.93;116.22;;;;;;;;;;4930455;29;20079;-78
2021/12/09 15:19:30;;;;;;;322.00;166.48;;;;;;;;;;4943499;29;20134;-78
2021/12/09 15:22:12;;;;;;;54.88;34.40;;;;;;;;;;4943464;29;20031;-79
2021/12/09 15:24:57;;;;;;;70.55;39.53;;;;;;;;;;4945256;29;20030;-79
2021/12/09 15:27:25;;;;;;;123.35;67.07;;;;;;;;;;4942821;29;20043;-78
2021/12/09 15:29:51;;;;;;;95.63;57.30;;;;;;;;;;4923649;29;20028;-76
2021/12/09 15:32:17;;;;;;;101.20;59.15;;;;;;;;;;4929900;29;20071;-77
2021/12/09 15:34:45;;;;;;;299.48;180.07;;;;;;;;;;4923376;29;20418;-77
2021/12/09 15:37:16;;;;;;;108.80;64.78;;;;;;;;;;4908994;29;20101;-77
2021/12/09 15:39:47;;;;;;;75.13;45.30;;;;;;;;;;4939870;29;20103;-78
2021/12/09 15:42:15;;;;;;;190.00;106.30;;;;;;;;;;4918917;29;20454;-76
2021/12/09 15:44:46;;;;;;;164.73;108.10;;;;;;;;;;4925475;29;20131;-77
2021/12/09 15:47:17;;;;;;;360.83;250.98;;;;;;;;;;4928301;29;20056;-74
2021/12/09 15:49:49;;;;;;;105.45;69.40;;;;;;;;;;4930098;29;20032;-75
2021/12/09 15:52:20;;;;;;;235.90;149.13;;;;;;;;;;4917078;29;20048;-77
2021/12/09 15:54:59;;;;;;;53.80;33.95;;;;;;;;;;4928706;29;20009;-80
2021/12/09 15:57:30;;;;;;;350.27;219.52;;;;;;;;;;4922561;29;20520;-78
2021/12/09 16:02:53;;;;;;;423.58;262.10;;;;;;;;;;5130140;23;20056;-79
2021/12/09 16:05:25;;;;;;;57.30;36.25;;;;;;;;;;4952502;29;20032;-79
2021/12/09 16:10:50;;;;;;;69.32;43.00;;;;;;;;;;5078777;23;20117;-78